Time;durP1;ratioP1;P1;durP2;ratioP2;P2;SDS_P1;SDS_P2;PMS_P1;PMS_P2;Temp;Humidity;BMP_temperature;BMP_pressure;BME280_temperature;BME280_humidity;BME280_pressure;Samples;Min_cycle;Max_cycle;Signal;HPM_P1;HPM_P2
2021/10/09 00:02:37;;;;;;;2.95;1.10;;;;;;;;;;5111139;27;20465;-74
2021/10/09 00:05:03;;;;;;;1.95;1.25;;;;;;;;;;5126546;28;20074;-74
2021/10/09 00:07:29;;;;;;;1.42;1.13;;;;;;;;;;5111137;28;20017;-74
2021/10/09 00:11:01;;;;;;;1.80;1.13;;;;;;;;;;5110998;27;20404;-74
2021/10/09 00:14:36;;;;;;;1.02;0.93;;;;;;;;;;5111072;27;20981;-72
2021/10/09 00:17:03;;;;;;;1.52;1.00;;;;;;;;;;5111113;28;20032;-74
2021/10/09 00:19:29;;;;;;;3.28;1.38;;;;;;;;;;5110643;28;20020;-72
2021/10/09 00:23:50;;;;;;;1.92;1.02;;;;;;;;;;5111442;27;20412;-72
2021/10/09 00:27:04;;;;;;;1.45;1.05;;;;;;;;;;5070183;28;20914;-75
2021/10/09 00:29:31;;;;;;;4.15;1.13;;;;;;;;;;5069494;28;20390;-74
2021/10/09 00:31:57;;;;;;;4.88;0.95;;;;;;;;;;5070128;28;20029;-74
2021/10/09 00:36:27;;;;;;;2.10;1.17;;;;;;;;;;5111059;27;20465;-73
2021/10/09 00:38:54;;;;;;;1.40;0.80;;;;;;;;;;5109755;28;20028;-72
2021/10/09 00:41:20;;;;;;;1.17;1.08;;;;;;;;;;5111002;28;20023;-72
2021/10/09 00:43:46;;;;;;;2.80;0.98;;;;;;;;;;5111019;28;20061;-72
2021/10/09 00:46:13;;;;;;;2.35;1.15;;;;;;;;;;5110522;28;20039;-71
2021/10/09 00:48:39;;;;;;;2.05;1.25;;;;;;;;;;5110833;28;20122;-72
2021/10/09 00:51:06;;;;;;;1.90;1.20;;;;;;;;;;5111083;28;20472;-72
2021/10/09 00:53:34;;;;;;;2.15;1.13;;;;;;;;;;5110417;28;20028;-72
2021/10/09 00:56:01;;;;;;;2.45;1.20;;;;;;;;;;5109451;28;20036;-73
2021/10/09 00:58:27;;;;;;;0.90;0.85;;;;;;;;;;5110622;28;20020;-73
2021/10/09 01:00:55;;;;;;;1.33;0.80;;;;;;;;;;5108973;28;20472;-72
2021/10/09 01:03:21;;;;;;;2.17;1.17;;;;;;;;;;5110677;28;20097;-72
2021/10/09 01:05:48;;;;;;;1.20;0.88;;;;;;;;;;5109296;28;20057;-72
2021/10/09 01:08:15;;;;;;;2.25;1.20;;;;;;;;;;5109009;28;20421;-72
2021/10/09 01:10:41;;;;;;;1.70;1.13;;;;;;;;;;5110342;28;20052;-72
2021/10/09 01:13:08;;;;;;;2.75;0.95;;;;;;;;;;5109278;28;20050;-72
2021/10/09 01:15:35;;;;;;;2.22;1.10;;;;;;;;;;5108744;28;20442;-72
2021/10/09 01:18:15;;;;;;;1.95;1.20;;;;;;;;;;5110600;28;20016;-73
2021/10/09 01:20:50;;;;;;;6.25;1.23;;;;;;;;;;5110624;28;20098;-72
2021/10/09 01:23:16;;;;;;;1.67;1.08;;;;;;;;;;5110025;28;20024;-72
2021/10/09 01:25:42;;;;;;;3.70;0.98;;;;;;;;;;5110267;28;20119;-72
2021/10/09 01:28:09;;;;;;;1.73;1.15;;;;;;;;;;5110217;28;20020;-73
2021/10/09 01:30:35;;;;;;;7.65;0.95;;;;;;;;;;5109853;28;20073;-72
2021/10/09 01:33:02;;;;;;;1.15;0.88;;;;;;;;;;5110007;28;20035;-73
2021/10/09 01:35:28;;;;;;;1.02;0.90;;;;;;;;;;5108170;28;20048;-73
2021/10/09 01:37:55;;;;;;;1.17;1.00;;;;;;;;;;5110060;28;20024;-72
2021/10/09 01:40:21;;;;;;;2.38;1.00;;;;;;;;;;5109862;28;20020;-72
2021/10/09 01:42:47;;;;;;;1.42;0.93;;;;;;;;;;5108236;28;20043;-72
2021/10/09 01:45:13;;;;;;;3.28;0.60;;;;;;;;;;5109848;28;20016;-72
2021/10/09 01:47:40;;;;;;;1.35;0.90;;;;;;;;;;5097024;28;20024;-72
2021/10/09 01:50:07;;;;;;;2.83;0.90;;;;;;;;;;5095883;28;20016;-72
2021/10/09 01:52:33;;;;;;;1.08;0.70;;;;;;;;;;5096132;28;20024;-72
2021/10/09 01:54:59;;;;;;;1.00;0.77;;;;;;;;;;5095985;28;20469;-72
2021/10/09 01:57:25;;;;;;;1.13;0.60;;;;;;;;;;5094444;28;20020;-73
2021/10/09 01:59:51;;;;;;;2.50;0.88;;;;;;;;;;5096028;28;20028;-72
2021/10/09 02:02:18;;;;;;;1.25;0.68;;;;;;;;;;5095872;28;20103;-72
2021/10/09 02:04:44;;;;;;;0.93;0.73;;;;;;;;;;5095575;28;20024;-72
2021/10/09 02:07:16;;;;;;;2.97;1.38;;;;;;;;;;5094638;28;20043;-72
2021/10/09 02:09:42;;;;;;;3.30;1.50;;;;;;;;;;5095872;28;20110;-72
2021/10/09 02:12:08;;;;;;;4.15;1.67;;;;;;;;;;5095232;28;20107;-72
2021/10/09 02:14:46;;;;;;;3.55;1.20;;;;;;;;;;5095835;28;20074;-72
2021/10/09 02:25:49;;;;;;;1.70;1.10;;;;;;;;;;5095544;28;20495;-72
2021/10/09 02:28:18;;;;;;;2.90;1.17;;;;;;;;;;5095531;28;20032;-72
2021/10/09 02:30:45;;;;;;;1.30;1.02;;;;;;;;;;5095422;28;20031;-72
2021/10/09 02:33:11;;;;;;;1.95;0.80;;;;;;;;;;5093659;28;20031;-73
2021/10/09 02:35:37;;;;;;;2.05;1.20;;;;;;;;;;5093826;28;20090;-73
2021/10/09 02:38:04;;;;;;;1.60;1.10;;;;;;;;;;5095166;28;20032;-73
2021/10/09 02:40:31;;;;;;;1.35;0.73;;;;;;;;;;5093535;28;20097;-72
2021/10/09 02:42:57;;;;;;;1.42;0.95;;;;;;;;;;5095153;28;20103;-72
2021/10/09 02:45:23;;;;;;;2.58;1.85;;;;;;;;;;5095072;28;20031;-72
2021/10/09 02:47:50;;;;;;;1.83;0.85;;;;;;;;;;5093387;28;20031;-72
2021/10/09 02:50:17;;;;;;;2.30;1.20;;;;;;;;;;5094998;28;20373;-72
2021/10/09 02:52:44;;;;;;;1.33;0.95;;;;;;;;;;5093255;28;20043;-72
2021/10/09 02:55:10;;;;;;;1.65;0.95;;;;;;;;;;5094995;28;20070;-73
2021/10/09 02:57:37;;;;;;;1.75;1.00;;;;;;;;;;5094284;28;20020;-72
2021/10/09 03:00:05;;;;;;;1.60;1.08;;;;;;;;;;5093917;28;20020;-72
2021/10/09 03:02:34;;;;;;;1.98;1.17;;;;;;;;;;5093572;28;20020;-72
2021/10/09 03:05:00;;;;;;;2.00;1.00;;;;;;;;;;5094671;28;20042;-73
2021/10/09 03:07:27;;;;;;;1.00;0.95;;;;;;;;;;5094277;28;20020;-72
2021/10/09 03:09:53;;;;;;;1.60;0.88;;;;;;;;;;5094564;28;20110;-73
2021/10/09 03:12:19;;;;;;;1.48;1.10;;;;;;;;;;5093305;28;20020;-73
2021/10/09 03:14:45;;;;;;;1.40;0.93;;;;;;;;;;5092785;28;20085;-72
2021/10/09 03:17:11;;;;;;;4.18;1.00;;;;;;;;;;5093269;28;20024;-73
2021/10/09 03:19:37;;;;;;;1.95;1.30;;;;;;;;;;5094468;28;20086;-72
2021/10/09 03:22:04;;;;;;;1.42;0.75;;;;;;;;;;5091586;28;20487;-73
2021/10/09 03:24:30;;;;;;;2.00;1.25;;;;;;;;;;5094089;28;20403;-72
2021/10/09 03:26:56;;;;;;;4.90;1.33;;;;;;;;;;5094373;28;20031;-73
2021/10/09 03:29:23;;;;;;;1.00;0.90;;;;;;;;;;5092553;28;20024;-72
2021/10/09 03:31:49;;;;;;;0.80;0.80;;;;;;;;;;5094095;28;20035;-73
2021/10/09 03:34:15;;;;;;;2.15;1.25;;;;;;;;;;5093810;28;20024;-73
2021/10/09 03:36:41;;;;;;;2.05;1.17;;;;;;;;;;5093764;28;20385;-73
2021/10/09 03:39:11;;;;;;;1.55;1.20;;;;;;;;;;5094197;28;20494;-74
2021/10/09 03:41:40;;;;;;;2.70;0.93;;;;;;;;;;5094040;28;20032;-72
2021/10/09 03:44:06;;;;;;;1.60;1.00;;;;;;;;;;5092287;28;20016;-73
2021/10/09 03:46:40;;;;;;;2.13;1.13;;;;;;;;;;5093951;28;20427;-72
2021/10/09 03:49:20;;;;;;;4.25;1.20;;;;;;;;;;5093557;28;20533;-73
2021/10/09 03:54:31;;;;;;;2.55;1.38;;;;;;;;;;5093797;28;20047;-73
2021/10/09 03:56:57;;;;;;;1.38;1.00;;;;;;;;;;5092182;28;20441;-73
2021/10/09 03:59:23;;;;;;;1.50;1.10;;;;;;;;;;5092489;28;20073;-73
2021/10/09 04:01:50;;;;;;;2.25;1.58;;;;;;;;;;5093589;28;20024;-72
2021/10/09 04:04:17;;;;;;;2.05;1.20;;;;;;;;;;5093247;28;20024;-72
2021/10/09 04:06:43;;;;;;;2.63;1.45;;;;;;;;;;5093699;28;20032;-73
2021/10/09 04:09:09;;;;;;;3.17;1.20;;;;;;;;;;5093458;28;20016;-75
2021/10/09 04:11:35;;;;;;;1.95;1.27;;;;;;;;;;5093351;28;20101;-74
2021/10/09 04:14:01;;;;;;;2.47;1.30;;;;;;;;;;5092332;28;20465;-75
2021/10/09 04:16:27;;;;;;;1.20;1.00;;;;;;;;;;5093361;28;20047;-75
2021/10/09 04:18:54;;;;;;;2.70;1.38;;;;;;;;;;5093119;28;20047;-72
2021/10/09 04:21:20;;;;;;;4.15;1.42;;;;;;;;;;5092272;28;20479;-73
2021/10/09 04:23:46;;;;;;;2.17;1.40;;;;;;;;;;5093379;28;20027;-73
2021/10/09 04:26:12;;;;;;;2.42;1.25;;;;;;;;;;5093128;28;20043;-74
2021/10/09 04:28:38;;;;;;;1.70;1.25;;;;;;;;;;5092157;28;20028;-73
2021/10/09 04:31:05;;;;;;;1.75;1.13;;;;;;;;;;5091744;28;20093;-73
2021/10/09 04:33:31;;;;;;;2.15;1.25;;;;;;;;;;5092010;28;20111;-73
2021/10/09 04:35:57;;;;;;;2.08;1.17;;;;;;;;;;5094683;28;20478;-72
2021/10/09 04:38:23;;;;;;;3.13;1.55;;;;;;;;;;5102547;28;20024;-73
2021/10/09 04:40:49;;;;;;;3.75;1.70;;;;;;;;;;5096889;28;20032;-73
2021/10/09 04:43:15;;;;;;;2.45;1.52;;;;;;;;;;5093389;28;20016;-73
2021/10/09 04:45:42;;;;;;;2.38;1.58;;;;;;;;;;5092744;28;20024;-73
2021/10/09 04:48:08;;;;;;;2.95;1.38;;;;;;;;;;5092017;28;20029;-73
2021/10/09 04:50:34;;;;;;;2.47;1.50;;;;;;;;;;5092029;28;20082;-73
2021/10/09 04:53:00;;;;;;;2.63;1.48;;;;;;;;;;5092832;28;20042;-74
2021/10/09 04:55:26;;;;;;;5.20;1.20;;;;;;;;;;5093152;28;20085;-74
2021/10/09 04:57:54;;;;;;;2.72;1.27;;;;;;;;;;5093208;28;20020;-74
2021/10/09 05:00:21;;;;;;;1.55;1.15;;;;;;;;;;5092746;28;20069;-75
2021/10/09 05:02:47;;;;;;;3.53;1.10;;;;;;;;;;5093305;28;20044;-75
2021/10/09 05:05:13;;;;;;;2.15;1.35;;;;;;;;;;5093225;28;20078;-77
2021/10/09 05:07:39;;;;;;;2.08;1.52;;;;;;;;;;5092645;28;20400;-75
2021/10/09 05:10:07;;;;;;;2.15;1.17;;;;;;;;;;5093241;28;20034;-74
2021/10/09 05:12:33;;;;;;;2.47;1.30;;;;;;;;;;5093285;28;20027;-76
2021/10/09 05:14:59;;;;;;;2.85;1.10;;;;;;;;;;5092649;28;20420;-76
2021/10/09 05:17:25;;;;;;;1.88;1.20;;;;;;;;;;5092964;28;20117;-73
2021/10/09 05:19:51;;;;;;;2.60;1.30;;;;;;;;;;5092975;28;20027;-73
2021/10/09 05:22:17;;;;;;;1.38;1.10;;;;;;;;;;5093592;28;20480;-73
2021/10/09 05:24:44;;;;;;;3.20;1.15;;;;;;;;;;5095622;28;20024;-73
2021/10/09 05:27:10;;;;;;;1.98;1.17;;;;;;;;;;5096809;28;20485;-73
2021/10/09 05:29:36;;;;;;;4.35;2.20;;;;;;;;;;5096236;28;20102;-73
2021/10/09 05:32:05;;;;;;;3.22;1.92;;;;;;;;;;5096670;28;20028;-74
2021/10/09 05:34:31;;;;;;;6.75;2.60;;;;;;;;;;5094647;28;20508;-73
2021/10/09 05:36:58;;;;;;;3.55;2.00;;;;;;;;;;5095357;28;20450;-73
2021/10/09 05:39:24;;;;;;;5.72;2.78;;;;;;;;;;5096453;28;20019;-73
2021/10/09 05:41:50;;;;;;;4.65;2.22;;;;;;;;;;5096107;28;20028;-74
2021/10/09 05:44:17;;;;;;;6.07;3.05;;;;;;;;;;5095182;28;20020;-75
2021/10/09 05:46:43;;;;;;;6.05;2.95;;;;;;;;;;5095209;28;20070;-73
2021/10/09 05:49:10;;;;;;;4.20;2.20;;;;;;;;;;5095994;28;20022;-72
2021/10/09 05:51:40;;;;;;;2.85;1.60;;;;;;;;;;5095311;28;20498;-73
2021/10/09 05:54:15;;;;;;;3.15;1.40;;;;;;;;;;5096318;28;20016;-73
2021/10/09 06:43:21;;;;;;;21.38;10.82;;;;;;;;;;5095357;28;20031;-73
2021/10/09 06:59:35;;;;;;;8.63;4.50;;;;;;;;;;5094659;28;20401;-74
2021/10/09 07:02:01;;;;;;;5.80;2.60;;;;;;;;;;5095072;28;20020;-74
2021/10/09 07:04:28;;;;;;;4.53;2.47;;;;;;;;;;5094960;28;20028;-74
2021/10/09 07:06:55;;;;;;;6.47;3.50;;;;;;;;;;5094442;28;20071;-72
2021/10/09 07:09:21;;;;;;;5.50;2.70;;;;;;;;;;5093465;28;20031;-72
2021/10/09 07:11:48;;;;;;;3.72;2.03;;;;;;;;;;5093448;28;20024;-72
2021/10/09 07:14:14;;;;;;;4.18;2.13;;;;;;;;;;5094124;28;20107;-73
2021/10/09 07:16:40;;;;;;;4.00;2.42;;;;;;;;;;5093320;28;20059;-72
2021/10/09 07:19:06;;;;;;;4.18;2.40;;;;;;;;;;5094537;28;20020;-72
2021/10/09 07:21:32;;;;;;;6.82;3.10;;;;;;;;;;5094144;28;20085;-74
2021/10/09 07:23:58;;;;;;;5.03;2.83;;;;;;;;;;5093293;28;20047;-74
2021/10/09 07:26:25;;;;;;;10.10;4.80;;;;;;;;;;5094517;28;20071;-72
2021/10/09 07:28:51;;;;;;;17.95;7.97;;;;;;;;;;5093979;28;20024;-72
2021/10/09 07:31:17;;;;;;;16.73;8.10;;;;;;;;;;5094410;28;20476;-72
2021/10/09 07:33:43;;;;;;;12.88;5.88;;;;;;;;;;5094361;28;20039;-72
2021/10/09 07:36:09;;;;;;;6.78;3.95;;;;;;;;;;5092336;28;20413;-73
2021/10/09 07:38:36;;;;;;;6.45;3.40;;;;;;;;;;5092985;28;20431;-73
2021/10/09 07:41:02;;;;;;;7.22;3.70;;;;;;;;;;5093824;28;20028;-73
2021/10/09 07:43:28;;;;;;;12.70;6.05;;;;;;;;;;5094070;28;20020;-73
2021/10/09 07:45:54;;;;;;;13.57;6.00;;;;;;;;;;5092427;28;20047;-73
2021/10/09 07:48:20;;;;;;;10.20;5.53;;;;;;;;;;5092448;28;20020;-72
2021/10/09 07:50:46;;;;;;;16.92;9.52;;;;;;;;;;5093983;28;20469;-73
2021/10/09 07:53:13;;;;;;;52.72;27.08;;;;;;;;;;5094021;28;20086;-73
2021/10/09 07:55:40;;;;;;;25.67;14.40;;;;;;;;;;5094957;28;20032;-73
2021/10/09 07:58:06;;;;;;;16.00;10.95;;;;;;;;;;5098086;28;20020;-72
2021/10/09 08:00:32;;;;;;;15.40;8.52;;;;;;;;;;5095512;28;20095;-73
2021/10/09 08:03:03;;;;;;;11.20;6.78;;;;;;;;;;5093381;28;20028;-73
2021/10/09 08:05:29;;;;;;;8.93;5.40;;;;;;;;;;5093974;28;20031;-73
2021/10/09 08:07:56;;;;;;;12.43;6.20;;;;;;;;;;5093823;28;20020;-72
2021/10/09 08:10:22;;;;;;;8.32;4.97;;;;;;;;;;5092074;28;20024;-73
2021/10/09 08:12:48;;;;;;;7.00;3.80;;;;;;;;;;5093635;28;20123;-73
2021/10/09 08:15:14;;;;;;;6.18;3.55;;;;;;;;;;5093643;28;20484;-73
2021/10/09 08:17:40;;;;;;;6.07;2.75;;;;;;;;;;5093333;28;20485;-73
2021/10/09 08:20:07;;;;;;;5.60;3.00;;;;;;;;;;5092267;28;20032;-73
2021/10/09 08:22:37;;;;;;;9.45;4.03;;;;;;;;;;5093628;28;20093;-74
2021/10/09 08:38:50;;;;;;;11.85;5.63;;;;;;;;;;5089105;28;20048;-74
2021/10/09 08:41:17;;;;;;;12.60;7.60;;;;;;;;;;5093308;28;20020;-73
2021/10/09 08:43:51;;;;;;;9.23;5.30;;;;;;;;;;5092022;28;20024;-73
2021/10/09 08:46:18;;;;;;;10.13;5.53;;;;;;;;;;5091846;28;20393;-74
2021/10/09 08:48:48;;;;;;;6.65;3.70;;;;;;;;;;5093272;28;20020;-74
2021/10/09 08:51:25;;;;;;;8.48;4.05;;;;;;;;;;5093396;28;20407;-74
2021/10/09 08:53:51;;;;;;;17.73;9.40;;;;;;;;;;5092005;28;20480;-74
2021/10/09 08:56:35;;;;;;;14.27;7.00;;;;;;;;;;5092496;28;20083;-74
2021/10/09 08:59:07;;;;;;;11.10;6.35;;;;;;;;;;5096891;28;20020;-74
2021/10/09 09:01:48;;;;;;;12.60;5.33;;;;;;;;;;5097360;28;20024;-74
2021/10/09 09:34:48;;;;;;;9.30;5.70;;;;;;;;;;5096009;28;20039;-73
2021/10/09 09:39:59;;;;;;;9.25;4.82;;;;;;;;;;5096655;28;20025;-73
2021/10/09 09:42:25;;;;;;;8.63;5.68;;;;;;;;;;5096013;28;20025;-73
2021/10/09 09:44:55;;;;;;;9.18;5.25;;;;;;;;;;5096486;28;20024;-73
2021/10/09 09:47:42;;;;;;;10.52;5.85;;;;;;;;;;5096507;28;20070;-73
2021/10/09 09:50:09;;;;;;;12.93;7.75;;;;;;;;;;5096379;28;20438;-74
2021/10/09 09:52:41;;;;;;;11.95;6.05;;;;;;;;;;5094928;28;20450;-74
2021/10/09 09:55:08;;;;;;;12.10;6.65;;;;;;;;;;5094522;28;20040;-74
2021/10/09 09:57:36;;;;;;;12.80;7.18;;;;;;;;;;5094979;28;20020;-74
2021/10/09 10:00:07;;;;;;;8.65;4.45;;;;;;;;;;5096308;28;20024;-75
2021/10/09 10:02:34;;;;;;;7.18;3.97;;;;;;;;;;5095700;28;20031;-76
2021/10/09 10:05:02;;;;;;;8.43;4.53;;;;;;;;;;5096136;28;20081;-73
2021/10/09 10:07:29;;;;;;;24.23;11.13;;;;;;;;;;5095540;28;20028;-73
2021/10/09 10:09:55;;;;;;;42.28;17.45;;;;;;;;;;5094286;28;20104;-73
2021/10/09 10:12:23;;;;;;;43.15;20.80;;;;;;;;;;5094608;28;20020;-73
2021/10/09 10:14:50;;;;;;;26.08;13.32;;;;;;;;;;5095779;28;20032;-73
2021/10/09 10:17:36;;;;;;;15.57;8.38;;;;;;;;;;5095410;28;20028;-73
2021/10/09 10:20:02;;;;;;;14.25;7.18;;;;;;;;;;5095857;28;20025;-72
2021/10/09 10:22:31;;;;;;;16.90;9.10;;;;;;;;;;5094403;28;20032;-73
2021/10/09 10:24:58;;;;;;;17.30;8.80;;;;;;;;;;5095321;28;20411;-73
2021/10/09 10:27:32;;;;;;;13.15;7.13;;;;;;;;;;5095694;28;20024;-73
2021/10/09 10:30:16;;;;;;;17.73;10.32;;;;;;;;;;5093877;28;20110;-73
2021/10/09 10:33:03;;;;;;;18.60;9.65;;;;;;;;;;5094214;28;20106;-73
2021/10/09 10:35:29;;;;;;;16.13;10.90;;;;;;;;;;5080567;28;20047;-73
2021/10/09 10:38:19;;;;;;;12.27;6.68;;;;;;;;;;5095078;28;20480;-74
2021/10/09 10:40:50;;;;;;;16.90;9.70;;;;;;;;;;5087546;28;20028;-73
2021/10/09 10:46:44;;;;;;;8.38;4.63;;;;;;;;;;5095111;28;20020;-73
2021/10/09 10:49:23;;;;;;;21.85;14.23;;;;;;;;;;5095435;28;20066;-73
2021/10/09 10:57:02;;;;;;;18.80;9.73;;;;;;;;;;5095172;28;20032;-73
2021/10/09 10:59:48;;;;;;;17.88;9.63;;;;;;;;;;5094632;28;20494;-73
2021/10/09 11:02:14;;;;;;;16.88;9.82;;;;;;;;;;5094760;28;20050;-72
2021/10/09 11:04:45;;;;;;;16.77;10.40;;;;;;;;;;5094924;28;20058;-72
2021/10/09 11:07:11;;;;;;;18.10;9.70;;;;;;;;;;5093098;28;20031;-73
2021/10/09 11:09:39;;;;;;;13.15;7.22;;;;;;;;;;5095002;28;20043;-74
2021/10/09 11:12:20;;;;;;;12.30;6.90;;;;;;;;;;5094404;28;20020;-74
2021/10/09 11:14:46;;;;;;;8.23;4.82;;;;;;;;;;5094711;28;20032;-73
2021/10/09 11:17:12;;;;;;;10.55;5.68;;;;;;;;;;5098284;28;20464;-74
2021/10/09 11:19:47;;;;;;;8.15;5.28;;;;;;;;;;5096735;28;20109;-74
2021/10/09 11:22:14;;;;;;;11.25;5.80;;;;;;;;;;5093239;28;20031;-73
2021/10/09 11:24:42;;;;;;;19.05;9.15;;;;;;;;;;5094529;28;20032;-73
2021/10/09 11:27:08;;;;;;;16.38;9.32;;;;;;;;;;5092898;28;20073;-74
2021/10/09 11:29:34;;;;;;;7.32;4.50;;;;;;;;;;5094506;28;20024;-73
2021/10/09 11:32:01;;;;;;;8.98;4.90;;;;;;;;;;5093038;28;20065;-74
2021/10/09 11:34:27;;;;;;;9.77;4.90;;;;;;;;;;5093693;28;20113;-73
2021/10/09 11:36:54;;;;;;;11.50;5.43;;;;;;;;;;5094396;28;20012;-73
2021/10/09 11:39:24;;;;;;;11.93;6.53;;;;;;;;;;5094344;28;20024;-73
2021/10/09 11:42:11;;;;;;;14.98;7.30;;;;;;;;;;5093824;28;20100;-73
2021/10/09 11:44:49;;;;;;;13.90;6.72;;;;;;;;;;5094201;28;20104;-72
2021/10/09 11:47:36;;;;;;;18.05;8.30;;;;;;;;;;5093894;28;20023;-73
2021/10/09 11:56:59;;;;;;;12.77;6.75;;;;;;;;;;5111399;27;20465;-74
2021/10/09 11:59:37;;;;;;;18.27;9.48;;;;;;;;;;5111192;28;20060;-74
2021/10/09 12:02:04;;;;;;;20.92;10.10;;;;;;;;;;5110610;28;20112;-74
2021/10/09 12:04:30;;;;;;;11.00;6.35;;;;;;;;;;5111350;28;20084;-74
2021/10/09 12:07:05;;;;;;;10.68;5.55;;;;;;;;;;5109780;28;20140;-73
2021/10/09 12:09:34;;;;;;;9.23;4.88;;;;;;;;;;5110651;28;20026;-74
2021/10/09 12:12:11;;;;;;;9.18;5.03;;;;;;;;;;5110849;28;20028;-74
2021/10/09 12:14:37;;;;;;;10.48;5.95;;;;;;;;;;5110932;28;20132;-74
2021/10/09 12:17:03;;;;;;;23.90;13.68;;;;;;;;;;5110578;28;20027;-74
2021/10/09 12:19:30;;;;;;;32.80;16.77;;;;;;;;;;5110868;28;20019;-74
2021/10/09 12:22:01;;;;;;;36.35;17.30;;;;;;;;;;5109458;28;20027;-74
2021/10/09 12:24:28;;;;;;;23.75;11.48;;;;;;;;;;5109109;28;20043;-74
2021/10/09 12:27:02;;;;;;;24.08;12.80;;;;;;;;;;5110954;28;20103;-74
2021/10/09 12:29:28;;;;;;;;;;;;;;;;;;5110637;28;20028;-74
2021/10/09 12:31:55;;;;;;;31.75;16.92;;;;;;;;;;5110452;28;19904;-74
2021/10/09 12:34:30;;;;;;;14.73;8.15;;;;;;;;;;5110607;28;20099;-74
2021/10/09 12:37:10;;;;;;;11.95;8.20;;;;;;;;;;5110279;28;20040;-74
2021/10/09 12:39:37;;;;;;;9.60;5.72;;;;;;;;;;5110452;28;20055;-74
2021/10/09 12:42:03;;;;;;;8.40;4.75;;;;;;;;;;5108983;28;20024;-74
2021/10/09 12:44:29;;;;;;;9.95;5.32;;;;;;;;;;5109931;28;20196;-74
2021/10/09 12:46:55;;;;;;;7.68;4.80;;;;;;;;;;5109080;28;20024;-73
2021/10/09 12:50:11;;;;;;;7.78;4.32;;;;;;;;;;5111292;27;20402;-74
2021/10/09 12:53:01;;;;;;;17.48;9.43;;;;;;;;;;5111529;27;20404;-72
2021/10/09 12:58:29;;;;;;;7.47;4.45;;;;;;;;;;5070462;28;20481;-74
2021/10/09 13:03:50;;;;;;;8.38;4.70;;;;;;;;;;5111592;27;20473;-73
2021/10/09 13:06:16;;;;;;;8.52;5.05;;;;;;;;;;5110880;28;20051;-73
2021/10/09 13:08:42;;;;;;;8.00;4.22;;;;;;;;;;5127075;28;20054;-73
2021/10/09 13:12:38;;;;;;;8.45;4.15;;;;;;;;;;5070454;28;20403;-73
2021/10/09 13:15:06;;;;;;;8.57;4.20;;;;;;;;;;5070701;28;20074;-74
2021/10/09 13:17:32;;;;;;;14.20;7.60;;;;;;;;;;5070577;28;20377;-73
2021/10/09 13:22:07;;;;;;;10.43;5.63;;;;;;;;;;5111541;27;20465;-74
2021/10/09 13:24:33;;;;;;;8.98;5.25;;;;;;;;;;5111259;28;20032;-74
2021/10/09 13:26:59;;;;;;;9.98;5.40;;;;;;;;;;5110840;28;20043;-72
2021/10/09 13:29:25;;;;;;;9.55;5.75;;;;;;;;;;5111177;28;20407;-73
2021/10/09 13:31:51;;;;;;;8.07;4.22;;;;;;;;;;5111009;28;20027;-73
2021/10/09 13:34:18;;;;;;;10.68;5.80;;;;;;;;;;5110825;28;20031;-74
2021/10/09 13:36:45;;;;;;;9.88;5.57;;;;;;;;;;5126857;28;20549;-73
2021/10/09 13:39:11;;;;;;;12.73;6.07;;;;;;;;;;5110996;28;20498;-73
2021/10/09 13:41:38;;;;;;;19.67;9.70;;;;;;;;;;5126190;28;20060;-73
2021/10/09 13:44:05;;;;;;;16.33;10.25;;;;;;;;;;5126679;28;20467;-74
2021/10/09 13:46:32;;;;;;;11.10;6.75;;;;;;;;;;5109705;28;20016;-74
2021/10/09 13:48:59;;;;;;;11.45;6.85;;;;;;;;;;5110480;28;20069;-74
2021/10/09 13:53:33;;;;;;;11.50;5.50;;;;;;;;;;5111234;27;20388;-74
2021/10/09 13:55:59;;;;;;;15.73;7.68;;;;;;;;;;5109682;28;20038;-73
2021/10/09 13:58:25;;;;;;;20.40;10.90;;;;;;;;;;5109825;28;20054;-73
2021/10/09 14:00:51;;;;;;;15.98;8.70;;;;;;;;;;5109432;28;20361;-73
2021/10/09 14:03:17;;;;;;;15.25;8.75;;;;;;;;;;5111098;28;20027;-73
2021/10/09 14:05:44;;;;;;;18.08;11.55;;;;;;;;;;5109742;28;20051;-73
2021/10/09 14:08:10;;;;;;;14.20;8.65;;;;;;;;;;5110629;28;20028;-74
2021/10/09 14:10:36;;;;;;;11.90;7.38;;;;;;;;;;5111000;28;20084;-73
2021/10/09 14:13:03;;;;;;;11.27;6.15;;;;;;;;;;5110839;28;20111;-74
2021/10/09 14:15:31;;;;;;;9.25;5.80;;;;;;;;;;5108246;28;20016;-73
2021/10/09 14:17:57;;;;;;;14.23;8.52;;;;;;;;;;5110852;28;20027;-73
2021/10/09 14:20:23;;;;;;;15.57;9.80;;;;;;;;;;5109622;28;20035;-74
2021/10/09 14:22:49;;;;;;;13.93;8.48;;;;;;;;;;5110281;28;20149;-73
2021/10/09 14:25:15;;;;;;;15.57;8.70;;;;;;;;;;5109576;28;20480;-74
2021/10/09 14:27:42;;;;;;;18.23;11.63;;;;;;;;;;5110798;28;20028;-73
2021/10/09 14:30:08;;;;;;;26.98;15.93;;;;;;;;;;5110436;28;20385;-75
2021/10/09 14:32:36;;;;;;;17.85;9.65;;;;;;;;;;5110692;28;20024;-74
2021/10/09 14:35:03;;;;;;;14.73;7.85;;;;;;;;;;5110768;28;20099;-74
2021/10/09 14:37:29;;;;;;;18.05;13.48;;;;;;;;;;5130991;28;20012;-73
2021/10/09 14:39:56;;;;;;;14.50;9.18;;;;;;;;;;5125245;28;20552;-74
2021/10/09 14:42:22;;;;;;;12.70;7.78;;;;;;;;;;5110898;28;20099;-74
2021/10/09 14:44:48;;;;;;;14.40;6.80;;;;;;;;;;5110860;28;20145;-74
2021/10/09 14:52:51;;;;;;;24.55;12.23;;;;;;;;;;5110317;28;20036;-74
2021/10/09 15:18:03;;;;;;;18.27;10.00;;;;;;;;;;5096485;28;20035;-75
2021/10/09 15:20:29;;;;;;;11.82;7.38;;;;;;;;;;5095897;28;20464;-75
2021/10/09 15:22:55;;;;;;;9.95;5.38;;;;;;;;;;5096155;28;20103;-75
2021/10/09 15:25:24;;;;;;;6.88;3.95;;;;;;;;;;5095847;28;20058;-74
2021/10/09 15:27:50;;;;;;;9.70;4.68;;;;;;;;;;5096155;28;20023;-74
2021/10/09 15:30:17;;;;;;;28.05;13.82;;;;;;;;;;5096105;28;20030;-74
2021/10/09 15:32:43;;;;;;;21.63;9.75;;;;;;;;;;5095544;28;20032;-74
2021/10/09 15:35:09;;;;;;;14.38;7.85;;;;;;;;;;5096032;28;20024;-75
2021/10/09 15:37:35;;;;;;;11.02;6.10;;;;;;;;;;5096061;28;20020;-75
2021/10/09 15:40:02;;;;;;;8.27;4.95;;;;;;;;;;5094151;28;20035;-75
2021/10/09 15:42:28;;;;;;;10.88;5.78;;;;;;;;;;5095739;28;20020;-74
2021/10/09 15:44:54;;;;;;;14.85;6.43;;;;;;;;;;5095674;28;20031;-73
2021/10/09 15:47:21;;;;;;;8.35;5.22;;;;;;;;;;5095414;28;20027;-74
2021/10/09 15:49:47;;;;;;;10.25;5.65;;;;;;;;;;5095689;28;20476;-74
2021/10/09 15:52:13;;;;;;;7.32;4.28;;;;;;;;;;5095366;28;20079;-74
2021/10/09 15:54:39;;;;;;;9.70;5.03;;;;;;;;;;5095175;28;20020;-74
2021/10/09 15:57:08;;;;;;;8.95;5.57;;;;;;;;;;5094221;28;20055;-74
2021/10/09 15:59:34;;;;;;;12.73;7.15;;;;;;;;;;5094172;28;20107;-75
2021/10/09 16:02:00;;;;;;;11.57;6.32;;;;;;;;;;5093578;28;20480;-74
2021/10/09 16:04:26;;;;;;;11.98;6.10;;;;;;;;;;5095337;28;20028;-74
2021/10/09 16:06:55;;;;;;;13.40;6.88;;;;;;;;;;5095226;28;20107;-74
2021/10/09 16:09:22;;;;;;;9.82;4.85;;;;;;;;;;5094871;28;20051;-75
2021/10/09 16:11:48;;;;;;;10.18;5.93;;;;;;;;;;5093857;28;20028;-75
2021/10/09 16:14:14;;;;;;;14.65;7.90;;;;;;;;;;5094972;28;20442;-74
2021/10/09 16:16:40;;;;;;;13.35;7.30;;;;;;;;;;5092567;28;20472;-74
2021/10/09 16:19:07;;;;;;;17.77;7.90;;;;;;;;;;5093595;28;20035;-74
2021/10/09 16:21:33;;;;;;;29.15;13.43;;;;;;;;;;5093297;28;20028;-74
2021/10/09 16:23:59;;;;;;;35.65;18.60;;;;;;;;;;5093505;28;20080;-74
2021/10/09 16:26:26;;;;;;;20.85;11.35;;;;;;;;;;5094815;28;20035;-75
2021/10/09 16:28:53;;;;;;;16.35;8.18;;;;;;;;;;5092965;28;20072;-75
2021/10/09 16:31:19;;;;;;;16.33;7.28;;;;;;;;;;5093186;28;20384;-74
2021/10/09 16:33:46;;;;;;;15.18;8.75;;;;;;;;;;5093362;28;20024;-74
2021/10/09 16:36:13;;;;;;;18.20;10.52;;;;;;;;;;5092916;28;20488;-75
2021/10/09 16:38:39;;;;;;;16.33;8.38;;;;;;;;;;5094567;28;20028;-75
2021/10/09 16:41:05;;;;;;;11.05;7.43;;;;;;;;;;5093154;28;20082;-75
2021/10/09 16:43:41;;;;;;;12.57;7.18;;;;;;;;;;5094370;28;20389;-75
2021/10/09 16:46:07;;;;;;;8.70;5.57;;;;;;;;;;5093002;28;20024;-75
2021/10/09 16:48:35;;;;;;;10.20;5.15;;;;;;;;;;5093312;28;20028;-74
2021/10/09 16:51:01;;;;;;;9.63;5.10;;;;;;;;;;5093911;28;20370;-74
2021/10/09 16:53:28;;;;;;;8.45;4.65;;;;;;;;;;5092687;28;20093;-74
2021/10/09 16:55:54;;;;;;;10.73;5.70;;;;;;;;;;5094365;28;20423;-75
2021/10/09 16:58:20;;;;;;;11.45;5.68;;;;;;;;;;5093997;28;20039;-75
2021/10/09 17:00:46;;;;;;;9.88;5.20;;;;;;;;;;5094261;28;20024;-74
2021/10/09 17:03:13;;;;;;;8.82;5.20;;;;;;;;;;5094088;28;20416;-75
2021/10/09 17:05:39;;;;;;;9.18;4.97;;;;;;;;;;5092423;28;20020;-75
2021/10/09 17:08:05;;;;;;;7.32;4.40;;;;;;;;;;5092755;28;20476;-75
2021/10/09 17:10:31;;;;;;;11.60;6.72;;;;;;;;;;5092991;28;20027;-75
2021/10/09 17:12:58;;;;;;;10.68;6.40;;;;;;;;;;5093481;28;20056;-75
2021/10/09 17:15:24;;;;;;;11.02;5.82;;;;;;;;;;5092527;28;20024;-75
2021/10/09 17:17:50;;;;;;;13.30;5.88;;;;;;;;;;5092466;28;20054;-75
2021/10/09 17:20:16;;;;;;;8.57;4.53;;;;;;;;;;5093848;28;20017;-75
2021/10/09 17:22:42;;;;;;;6.95;4.25;;;;;;;;;;5093852;28;20028;-75
2021/10/09 17:25:09;;;;;;;9.30;4.68;;;;;;;;;;5092136;28;20062;-75
2021/10/09 17:27:35;;;;;;;7.60;4.82;;;;;;;;;;5093664;28;20015;-75
2021/10/09 17:30:01;;;;;;;11.88;5.40;;;;;;;;;;5093866;28;20422;-75
2021/10/09 17:32:27;;;;;;;21.00;11.43;;;;;;;;;;5093250;28;20028;-75
2021/10/09 17:34:53;;;;;;;13.23;7.63;;;;;;;;;;5093788;28;20471;-75
2021/10/09 17:37:20;;;;;;;15.02;7.35;;;;;;;;;;5092390;28;20464;-75
2021/10/09 17:39:46;;;;;;;13.75;9.75;;;;;;;;;;5093259;28;20026;-74
2021/10/09 17:42:12;;;;;;;20.05;15.75;;;;;;;;;;5093642;28;20028;-75